sensor_id;sensor_type;location;lat;lon;timestamp;P1;durP1;ratioP1;P2;durP2;ratioP2
10246;SDS011;5168;47.854;7.944;2023-08-20T00:01:24;4.77;;;3.43;;
10246;SDS011;5168;47.854;7.944;2023-08-20T00:03:51;4.80;;;3.43;;
10246;SDS011;5168;47.854;7.944;2023-08-20T00:06:17;3.60;;;3.30;;
10246;SDS011;5168;47.854;7.944;2023-08-20T00:08:43;5.18;;;3.03;;
10246;SDS011;5168;47.854;7.944;2023-08-20T00:11:08;3.77;;;3.03;;
10246;SDS011;5168;47.854;7.944;2023-08-20T00:13:34;3.47;;;2.93;;
10246;SDS011;5168;47.854;7.944;2023-08-20T00:16:00;3.57;;;2.90;;
10246;SDS011;5168;47.854;7.944;2023-08-20T00:18:27;5.10;;;3.13;;
10246;SDS011;5168;47.854;7.944;2023-08-20T00:20:53;3.93;;;3.03;;
10246;SDS011;5168;47.854;7.944;2023-08-20T00:23:19;4.13;;;3.67;;
10246;SDS011;5168;47.854;7.944;2023-08-20T00:25:45;3.40;;;2.90;;
10246;SDS011;5168;47.854;7.944;2023-08-20T00:28:11;4.63;;;3.23;;
10246;SDS011;5168;47.854;7.944;2023-08-20T00:30:37;3.87;;;3.33;;
10246;SDS011;5168;47.854;7.944;2023-08-20T00:33:03;4.72;;;3.30;;
10246;SDS011;5168;47.854;7.944;2023-08-20T00:35:29;4.77;;;3.30;;
10246;SDS011;5168;47.854;7.944;2023-08-20T00:37:54;7.70;;;3.90;;
10246;SDS011;5168;47.854;7.944;2023-08-20T00:40:20;3.90;;;3.50;;
10246;SDS011;5168;47.854;7.944;2023-08-20T00:42:45;5.53;;;3.63;;
10246;SDS011;5168;47.854;7.944;2023-08-20T00:45:11;6.53;;;3.28;;
10246;SDS011;5168;47.854;7.944;2023-08-20T00:47:37;3.60;;;3.27;;
10246;SDS011;5168;47.854;7.944;2023-08-20T00:50:04;9.10;;;3.90;;
10246;SDS011;5168;47.854;7.944;2023-08-20T00:52:31;6.15;;;3.92;;
10246;SDS011;5168;47.854;7.944;2023-08-20T00:54:57;7.78;;;4.20;;
10246;SDS011;5168;47.854;7.944;2023-08-20T00:57:23;5.67;;;3.63;;
10246;SDS011;5168;47.854;7.944;2023-08-20T00:59:50;5.23;;;4.20;;
10246;SDS011;5168;47.854;7.944;2023-08-20T01:02:16;3.88;;;3.45;;
10246;SDS011;5168;47.854;7.944;2023-08-20T01:04:42;3.80;;;3.50;;
10246;SDS011;5168;47.854;7.944;2023-08-20T01:07:12;4.93;;;3.80;;
10246;SDS011;5168;47.854;7.944;2023-08-20T01:12:19;5.33;;;3.73;;
10246;SDS011;5168;47.854;7.944;2023-08-20T01:14:45;6.47;;;4.00;;
10246;SDS011;5168;47.854;7.944;2023-08-20T01:17:11;4.63;;;3.80;;
10246;SDS011;5168;47.854;7.944;2023-08-20T01:19:37;4.50;;;3.63;;
10246;SDS011;5168;47.854;7.944;2023-08-20T01:25:17;4.60;;;3.67;;
10246;SDS011;5168;47.854;7.944;2023-08-20T01:27:56;4.03;;;3.63;;
10246;SDS011;5168;47.854;7.944;2023-08-20T01:30:33;4.53;;;3.53;;
10246;SDS011;5168;47.854;7.944;2023-08-20T01:32:59;8.63;;;4.27;;
10246;SDS011;5168;47.854;7.944;2023-08-20T01:35:26;4.67;;;4.00;;
10246;SDS011;5168;47.854;7.944;2023-08-20T01:37:52;4.43;;;3.90;;
10246;SDS011;5168;47.854;7.944;2023-08-20T01:40:17;6.83;;;4.33;;
10246;SDS011;5168;47.854;7.944;2023-08-20T01:42:43;5.43;;;3.50;;
10246;SDS011;5168;47.854;7.944;2023-08-20T01:45:09;5.30;;;3.97;;
10246;SDS011;5168;47.854;7.944;2023-08-20T01:47:35;6.80;;;3.63;;
10246;SDS011;5168;47.854;7.944;2023-08-20T01:50:01;7.60;;;3.93;;
10246;SDS011;5168;47.854;7.944;2023-08-20T01:52:27;4.33;;;3.40;;
10246;SDS011;5168;47.854;7.944;2023-08-20T01:54:54;4.67;;;4.07;;
10246;SDS011;5168;47.854;7.944;2023-08-20T01:57:20;4.23;;;3.60;;
10246;SDS011;5168;47.854;7.944;2023-08-20T01:59:49;6.47;;;3.70;;
10246;SDS011;5168;47.854;7.944;2023-08-20T02:02:15;4.10;;;3.70;;
10246;SDS011;5168;47.854;7.944;2023-08-20T02:04:40;4.10;;;3.63;;
10246;SDS011;5168;47.854;7.944;2023-08-20T02:07:06;4.97;;;3.63;;
10246;SDS011;5168;47.854;7.944;2023-08-20T02:09:32;5.23;;;4.00;;
10246;SDS011;5168;47.854;7.944;2023-08-20T02:11:57;4.80;;;3.33;;
10246;SDS011;5168;47.854;7.944;2023-08-20T02:14:23;6.47;;;4.10;;
10246;SDS011;5168;47.854;7.944;2023-08-20T02:16:49;4.10;;;3.70;;
10246;SDS011;5168;47.854;7.944;2023-08-20T02:19:15;5.37;;;4.00;;
10246;SDS011;5168;47.854;7.944;2023-08-20T02:21:41;4.97;;;3.60;;
10246;SDS011;5168;47.854;7.944;2023-08-20T02:24:07;7.47;;;3.60;;
10246;SDS011;5168;47.854;7.944;2023-08-20T02:26:33;6.47;;;3.90;;
10246;SDS011;5168;47.854;7.944;2023-08-20T02:28:59;5.83;;;3.53;;
10246;SDS011;5168;47.854;7.944;2023-08-20T02:31:24;4.70;;;3.70;;
10246;SDS011;5168;47.854;7.944;2023-08-20T02:33:50;6.00;;;4.10;;
10246;SDS011;5168;47.854;7.944;2023-08-20T02:36:16;4.53;;;3.60;;
10246;SDS011;5168;47.854;7.944;2023-08-20T02:38:41;4.07;;;3.20;;
10246;SDS011;5168;47.854;7.944;2023-08-20T02:41:07;3.73;;;3.40;;
10246;SDS011;5168;47.854;7.944;2023-08-20T02:43:33;7.70;;;4.20;;
10246;SDS011;5168;47.854;7.944;2023-08-20T02:45:59;5.97;;;4.13;;
10246;SDS011;5168;47.854;7.944;2023-08-20T02:48:24;8.03;;;3.80;;
10246;SDS011;5168;47.854;7.944;2023-08-20T02:50:52;7.73;;;4.13;;
10246;SDS011;5168;47.854;7.944;2023-08-20T02:53:19;4.10;;;3.63;;
10246;SDS011;5168;47.854;7.944;2023-08-20T02:55:45;8.23;;;4.27;;
10246;SDS011;5168;47.854;7.944;2023-08-20T02:58:11;8.23;;;3.73;;
10246;SDS011;5168;47.854;7.944;2023-08-20T03:00:37;4.90;;;4.20;;
10246;SDS011;5168;47.854;7.944;2023-08-20T03:03:03;4.20;;;3.80;;
10246;SDS011;5168;47.854;7.944;2023-08-20T03:05:34;6.83;;;3.90;;
10246;SDS011;5168;47.854;7.944;2023-08-20T03:07:59;4.03;;;3.63;;
10246;SDS011;5168;47.854;7.944;2023-08-20T03:10:26;3.87;;;3.50;;
10246;SDS011;5168;47.854;7.944;2023-08-20T03:12:52;3.80;;;3.40;;
10246;SDS011;5168;47.854;7.944;2023-08-20T03:15:18;4.30;;;3.90;;
10246;SDS011;5168;47.854;7.944;2023-08-20T03:17:43;5.80;;;4.10;;
10246;SDS011;5168;47.854;7.944;2023-08-20T03:20:09;6.93;;;3.97;;
10246;SDS011;5168;47.854;7.944;2023-08-20T03:22:36;5.50;;;3.70;;
10246;SDS011;5168;47.854;7.944;2023-08-20T03:25:03;8.83;;;3.90;;
10246;SDS011;5168;47.854;7.944;2023-08-20T03:27:29;4.30;;;3.70;;
10246;SDS011;5168;47.854;7.944;2023-08-20T03:29:55;5.33;;;3.87;;
10246;SDS011;5168;47.854;7.944;2023-08-20T03:32:20;4.50;;;3.80;;
10246;SDS011;5168;47.854;7.944;2023-08-20T03:34:46;5.27;;;3.57;;
10246;SDS011;5168;47.854;7.944;2023-08-20T03:37:12;3.63;;;3.33;;
10246;SDS011;5168;47.854;7.944;2023-08-20T03:39:37;6.03;;;3.80;;
10246;SDS011;5168;47.854;7.944;2023-08-20T03:42:03;3.87;;;3.57;;
10246;SDS011;5168;47.854;7.944;2023-08-20T03:44:30;4.77;;;3.77;;
10246;SDS011;5168;47.854;7.944;2023-08-20T03:46:56;3.43;;;3.13;;
10246;SDS011;5168;47.854;7.944;2023-08-20T03:49:21;4.50;;;3.63;;
10246;SDS011;5168;47.854;7.944;2023-08-20T03:51:47;5.53;;;3.90;;
10246;SDS011;5168;47.854;7.944;2023-08-20T03:54:13;4.60;;;3.67;;
10246;SDS011;5168;47.854;7.944;2023-08-20T03:56:39;4.23;;;3.50;;
10246;SDS011;5168;47.854;7.944;2023-08-20T03:59:04;5.03;;;3.50;;
10246;SDS011;5168;47.854;7.944;2023-08-20T04:01:30;4.70;;;3.80;;
10246;SDS011;5168;47.854;7.944;2023-08-20T04:03:56;7.93;;;4.33;;
10246;SDS011;5168;47.854;7.944;2023-08-20T04:06:21;4.83;;;3.90;;
10246;SDS011;5168;47.854;7.944;2023-08-20T04:08:47;6.40;;;4.20;;
10246;SDS011;5168;47.854;7.944;2023-08-20T04:11:14;5.53;;;3.90;;
10246;SDS011;5168;47.854;7.944;2023-08-20T04:13:39;5.90;;;4.17;;
10246;SDS011;5168;47.854;7.944;2023-08-20T04:16:08;5.33;;;4.10;;
10246;SDS011;5168;47.854;7.944;2023-08-20T04:18:34;7.17;;;4.30;;
10246;SDS011;5168;47.854;7.944;2023-08-20T04:21:00;5.27;;;3.67;;
10246;SDS011;5168;47.854;7.944;2023-08-20T04:23:26;4.70;;;4.00;;
10246;SDS011;5168;47.854;7.944;2023-08-20T04:25:51;5.13;;;3.77;;
10246;SDS011;5168;47.854;7.944;2023-08-20T04:28:17;4.70;;;3.77;;
10246;SDS011;5168;47.854;7.944;2023-08-20T04:30:43;4.27;;;3.50;;
10246;SDS011;5168;47.854;7.944;2023-08-20T04:33:08;8.53;;;4.50;;
10246;SDS011;5168;47.854;7.944;2023-08-20T04:35:34;4.80;;;3.33;;
10246;SDS011;5168;47.854;7.944;2023-08-20T04:38:01;5.37;;;3.80;;
10246;SDS011;5168;47.854;7.944;2023-08-20T04:40:27;5.50;;;4.07;;
10246;SDS011;5168;47.854;7.944;2023-08-20T04:42:53;3.50;;;3.20;;
10246;SDS011;5168;47.854;7.944;2023-08-20T04:45:19;7.53;;;3.87;;
10246;SDS011;5168;47.854;7.944;2023-08-20T04:47:46;5.27;;;3.87;;
10246;SDS011;5168;47.854;7.944;2023-08-20T04:50:12;8.40;;;3.97;;
10246;SDS011;5168;47.854;7.944;2023-08-20T04:52:38;4.20;;;3.50;;
10246;SDS011;5168;47.854;7.944;2023-08-20T04:55:04;3.90;;;3.60;;
10246;SDS011;5168;47.854;7.944;2023-08-20T04:57:31;4.13;;;3.57;;
10246;SDS011;5168;47.854;7.944;2023-08-20T04:59:57;5.27;;;3.90;;
10246;SDS011;5168;47.854;7.944;2023-08-20T05:02:22;5.07;;;3.60;;
10246;SDS011;5168;47.854;7.944;2023-08-20T05:04:48;6.83;;;3.43;;
10246;SDS011;5168;47.854;7.944;2023-08-20T05:07:14;5.03;;;3.57;;
10246;SDS011;5168;47.854;7.944;2023-08-20T05:09:40;6.53;;;3.80;;
10246;SDS011;5168;47.854;7.944;2023-08-20T05:12:05;6.30;;;4.20;;
10246;SDS011;5168;47.854;7.944;2023-08-20T05:14:31;7.33;;;4.50;;
10246;SDS011;5168;47.854;7.944;2023-08-20T05:16:57;7.03;;;3.83;;
10246;SDS011;5168;47.854;7.944;2023-08-20T05:19:22;4.37;;;3.53;;
10246;SDS011;5168;47.854;7.944;2023-08-20T05:21:48;6.37;;;3.60;;
10246;SDS011;5168;47.854;7.944;2023-08-20T05:24:14;4.40;;;3.80;;
10246;SDS011;5168;47.854;7.944;2023-08-20T05:26:39;4.00;;;3.60;;
10246;SDS011;5168;47.854;7.944;2023-08-20T05:29:05;3.90;;;3.50;;
10246;SDS011;5168;47.854;7.944;2023-08-20T05:31:31;4.47;;;3.57;;
10246;SDS011;5168;47.854;7.944;2023-08-20T05:33:57;5.63;;;3.77;;
10246;SDS011;5168;47.854;7.944;2023-08-20T05:36:23;4.63;;;3.80;;
10246;SDS011;5168;47.854;7.944;2023-08-20T05:38:49;5.57;;;3.70;;
10246;SDS011;5168;47.854;7.944;2023-08-20T05:41:15;4.57;;;3.30;;
10246;SDS011;5168;47.854;7.944;2023-08-20T05:43:41;9.03;;;3.87;;
10246;SDS011;5168;47.854;7.944;2023-08-20T05:46:07;7.40;;;4.00;;
10246;SDS011;5168;47.854;7.944;2023-08-20T05:48:32;5.43;;;3.70;;
10246;SDS011;5168;47.854;7.944;2023-08-20T05:50:58;5.17;;;3.60;;
10246;SDS011;5168;47.854;7.944;2023-08-20T05:53:24;5.50;;;3.60;;
10246;SDS011;5168;47.854;7.944;2023-08-20T05:55:49;5.55;;;3.80;;
10246;SDS011;5168;47.854;7.944;2023-08-20T05:58:15;6.13;;;3.95;;
10246;SDS011;5168;47.854;7.944;2023-08-20T06:00:40;4.95;;;3.90;;
10246;SDS011;5168;47.854;7.944;2023-08-20T06:03:06;3.88;;;3.47;;
10246;SDS011;5168;47.854;7.944;2023-08-20T06:05:33;4.45;;;3.90;;
10246;SDS011;5168;47.854;7.944;2023-08-20T06:07:59;4.43;;;3.67;;
10246;SDS011;5168;47.854;7.944;2023-08-20T06:10:25;5.55;;;3.20;;
10246;SDS011;5168;47.854;7.944;2023-08-20T06:12:51;4.70;;;3.50;;
10246;SDS011;5168;47.854;7.944;2023-08-20T06:15:17;4.43;;;3.63;;
10246;SDS011;5168;47.854;7.944;2023-08-20T06:17:43;5.68;;;3.45;;
10246;SDS011;5168;47.854;7.944;2023-08-20T06:20:09;4.38;;;3.28;;
10246;SDS011;5168;47.854;7.944;2023-08-20T06:22:36;3.95;;;3.63;;
10246;SDS011;5168;47.854;7.944;2023-08-20T06:25:02;3.80;;;3.45;;
10246;SDS011;5168;47.854;7.944;2023-08-20T06:27:29;4.05;;;3.50;;
10246;SDS011;5168;47.854;7.944;2023-08-20T06:29:54;5.47;;;3.63;;
10246;SDS011;5168;47.854;7.944;2023-08-20T06:32:20;5.25;;;4.10;;
10246;SDS011;5168;47.854;7.944;2023-08-20T06:34:45;4.72;;;3.67;;
10246;SDS011;5168;47.854;7.944;2023-08-20T06:37:11;5.38;;;3.78;;
10246;SDS011;5168;47.854;7.944;2023-08-20T06:39:37;4.55;;;4.10;;
10246;SDS011;5168;47.854;7.944;2023-08-20T06:42:02;3.90;;;3.60;;
10246;SDS011;5168;47.854;7.944;2023-08-20T06:44:28;4.00;;;3.60;;
10246;SDS011;5168;47.854;7.944;2023-08-20T06:46:54;4.13;;;3.67;;
10246;SDS011;5168;47.854;7.944;2023-08-20T06:49:20;4.50;;;3.88;;
10246;SDS011;5168;47.854;7.944;2023-08-20T06:51:46;4.97;;;3.53;;
10246;SDS011;5168;47.854;7.944;2023-08-20T06:54:11;6.35;;;3.58;;
10246;SDS011;5168;47.854;7.944;2023-08-20T06:56:37;4.15;;;3.03;;
10246;SDS011;5168;47.854;7.944;2023-08-20T06:59:02;5.13;;;3.80;;
10246;SDS011;5168;47.854;7.944;2023-08-20T07:01:29;3.33;;;3.03;;
10246;SDS011;5168;47.854;7.944;2023-08-20T07:03:55;6.38;;;3.33;;
10246;SDS011;5168;47.854;7.944;2023-08-20T07:06:21;3.72;;;3.33;;
10246;SDS011;5168;47.854;7.944;2023-08-20T07:08:46;5.47;;;3.40;;
10246;SDS011;5168;47.854;7.944;2023-08-20T07:11:12;4.20;;;3.17;;
10246;SDS011;5168;47.854;7.944;2023-08-20T07:13:37;7.30;;;3.45;;
10246;SDS011;5168;47.854;7.944;2023-08-20T07:16:03;6.32;;;4.15;;
10246;SDS011;5168;47.854;7.944;2023-08-20T07:18:29;5.60;;;3.40;;
10246;SDS011;5168;47.854;7.944;2023-08-20T07:20:55;5.90;;;3.45;;
10246;SDS011;5168;47.854;7.944;2023-08-20T07:23:21;7.70;;;4.00;;
10246;SDS011;5168;47.854;7.944;2023-08-20T07:25:47;7.80;;;4.00;;
10246;SDS011;5168;47.854;7.944;2023-08-20T07:28:17;7.65;;;4.15;;
10246;SDS011;5168;47.854;7.944;2023-08-20T07:30:51;9.35;;;4.13;;
10246;SDS011;5168;47.854;7.944;2023-08-20T07:33:17;5.43;;;3.70;;
10246;SDS011;5168;47.854;7.944;2023-08-20T07:35:42;6.78;;;3.70;;
10246;SDS011;5168;47.854;7.944;2023-08-20T07:38:08;6.78;;;4.18;;
10246;SDS011;5168;47.854;7.944;2023-08-20T07:40:34;4.97;;;3.60;;
10246;SDS011;5168;47.854;7.944;2023-08-20T07:43:00;5.90;;;3.92;;
10246;SDS011;5168;47.854;7.944;2023-08-20T07:45:26;5.75;;;3.63;;
10246;SDS011;5168;47.854;7.944;2023-08-20T07:47:51;4.90;;;3.72;;
10246;SDS011;5168;47.854;7.944;2023-08-20T07:50:17;5.40;;;3.63;;
10246;SDS011;5168;47.854;7.944;2023-08-20T07:52:43;4.65;;;3.75;;
10246;SDS011;5168;47.854;7.944;2023-08-20T07:55:08;6.60;;;3.70;;
10246;SDS011;5168;47.854;7.944;2023-08-20T07:57:34;4.57;;;3.45;;
10246;SDS011;5168;47.854;7.944;2023-08-20T08:00:00;5.20;;;4.43;;
10246;SDS011;5168;47.854;7.944;2023-08-20T08:02:29;6.35;;;3.70;;
10246;SDS011;5168;47.854;7.944;2023-08-20T08:04:54;6.97;;;3.90;;
10246;SDS011;5168;47.854;7.944;2023-08-20T08:07:20;6.00;;;3.67;;
10246;SDS011;5168;47.854;7.944;2023-08-20T08:09:45;6.45;;;4.25;;
10246;SDS011;5168;47.854;7.944;2023-08-20T08:12:11;4.18;;;3.42;;
10246;SDS011;5168;47.854;7.944;2023-08-20T08:14:37;7.25;;;4.13;;
10246;SDS011;5168;47.854;7.944;2023-08-20T08:17:03;6.00;;;3.90;;
10246;SDS011;5168;47.854;7.944;2023-08-20T08:19:29;6.05;;;3.58;;
10246;SDS011;5168;47.854;7.944;2023-08-20T08:21:54;7.38;;;3.50;;
10246;SDS011;5168;47.854;7.944;2023-08-20T08:24:20;5.85;;;3.80;;
10246;SDS011;5168;47.854;7.944;2023-08-20T08:26:46;5.28;;;3.92;;
10246;SDS011;5168;47.854;7.944;2023-08-20T08:29:11;6.53;;;4.00;;
10246;SDS011;5168;47.854;7.944;2023-08-20T08:31:37;8.35;;;3.65;;
10246;SDS011;5168;47.854;7.944;2023-08-20T08:34:02;5.53;;;3.72;;
10246;SDS011;5168;47.854;7.944;2023-08-20T08:36:28;6.25;;;3.60;;
10246;SDS011;5168;47.854;7.944;2023-08-20T08:38:54;7.63;;;3.40;;
10246;SDS011;5168;47.854;7.944;2023-08-20T08:41:23;6.72;;;3.90;;
10246;SDS011;5168;47.854;7.944;2023-08-20T08:43:51;7.25;;;4.28;;
10246;SDS011;5168;47.854;7.944;2023-08-20T08:46:17;14.68;;;4.45;;
10246;SDS011;5168;47.854;7.944;2023-08-20T08:48:43;6.90;;;4.20;;
10246;SDS011;5168;47.854;7.944;2023-08-20T08:51:11;9.85;;;4.30;;
10246;SDS011;5168;47.854;7.944;2023-08-20T08:53:37;6.13;;;3.83;;
10246;SDS011;5168;47.854;7.944;2023-08-20T08:56:03;8.73;;;4.05;;
10246;SDS011;5168;47.854;7.944;2023-08-20T08:58:30;5.97;;;3.50;;
10246;SDS011;5168;47.854;7.944;2023-08-20T09:00:57;5.45;;;3.70;;
10246;SDS011;5168;47.854;7.944;2023-08-20T09:03:23;6.93;;;3.38;;
10246;SDS011;5168;47.854;7.944;2023-08-20T09:05:50;6.85;;;3.58;;
10246;SDS011;5168;47.854;7.944;2023-08-20T09:08:27;7.55;;;3.80;;
10246;SDS011;5168;47.854;7.944;2023-08-20T09:10:55;8.50;;;4.18;;
10246;SDS011;5168;47.854;7.944;2023-08-20T09:13:25;6.93;;;4.15;;
10246;SDS011;5168;47.854;7.944;2023-08-20T09:15:57;6.30;;;3.55;;
10246;SDS011;5168;47.854;7.944;2023-08-20T09:18:23;5.25;;;3.60;;
10246;SDS011;5168;47.854;7.944;2023-08-20T09:20:49;5.22;;;3.65;;
10246;SDS011;5168;47.854;7.944;2023-08-20T09:23:15;6.32;;;3.40;;
10246;SDS011;5168;47.854;7.944;2023-08-20T09:25:41;9.15;;;3.92;;
10246;SDS011;5168;47.854;7.944;2023-08-20T09:28:08;5.97;;;3.75;;
10246;SDS011;5168;47.854;7.944;2023-08-20T09:30:34;5.63;;;3.45;;
10246;SDS011;5168;47.854;7.944;2023-08-20T09:33:18;6.28;;;3.50;;
10246;SDS011;5168;47.854;7.944;2023-08-20T09:35:49;8.07;;;3.47;;
10246;SDS011;5168;47.854;7.944;2023-08-20T09:38:16;6.25;;;3.78;;
10246;SDS011;5168;47.854;7.944;2023-08-20T09:40:47;7.50;;;3.97;;
10246;SDS011;5168;47.854;7.944;2023-08-20T09:43:14;7.00;;;3.53;;
10246;SDS011;5168;47.854;7.944;2023-08-20T09:45:41;8.75;;;3.75;;
10246;SDS011;5168;47.854;7.944;2023-08-20T09:48:08;6.43;;;4.07;;
10246;SDS011;5168;47.854;7.944;2023-08-20T09:50:35;8.55;;;3.63;;
10246;SDS011;5168;47.854;7.944;2023-08-20T09:53:10;9.07;;;3.63;;
10246;SDS011;5168;47.854;7.944;2023-08-20T09:55:45;8.45;;;3.38;;
10246;SDS011;5168;47.854;7.944;2023-08-20T09:58:12;5.38;;;3.88;;
10246;SDS011;5168;47.854;7.944;2023-08-20T10:00:40;6.72;;;3.38;;
10246;SDS011;5168;47.854;7.944;2023-08-20T10:03:05;6.05;;;3.42;;
10246;SDS011;5168;47.854;7.944;2023-08-20T10:05:31;10.75;;;4.10;;
10246;SDS011;5168;47.854;7.944;2023-08-20T10:07:58;6.68;;;3.78;;
10246;SDS011;5168;47.854;7.944;2023-08-20T10:10:24;5.90;;;3.60;;
10246;SDS011;5168;47.854;7.944;2023-08-20T10:12:51;5.22;;;3.50;;
10246;SDS011;5168;47.854;7.944;2023-08-20T10:15:17;4.70;;;3.70;;
10246;SDS011;5168;47.854;7.944;2023-08-20T10:17:44;10.02;;;4.03;;
10246;SDS011;5168;47.854;7.944;2023-08-20T10:20:12;9.90;;;3.75;;
10246;SDS011;5168;47.854;7.944;2023-08-20T10:22:41;7.75;;;3.53;;
10246;SDS011;5168;47.854;7.944;2023-08-20T10:25:11;9.07;;;3.90;;
10246;SDS011;5168;47.854;7.944;2023-08-20T10:27:47;5.88;;;3.38;;
10246;SDS011;5168;47.854;7.944;2023-08-20T10:30:16;5.43;;;3.70;;
10246;SDS011;5168;47.854;7.944;2023-08-20T10:32:49;8.88;;;3.97;;
10246;SDS011;5168;47.854;7.944;2023-08-20T10:35:26;9.50;;;3.80;;
10246;SDS011;5168;47.854;7.944;2023-08-20T10:43:32;7.55;;;3.92;;
10246;SDS011;5168;47.854;7.944;2023-08-20T10:46:06;8.90;;;3.63;;
10246;SDS011;5168;47.854;7.944;2023-08-20T10:48:32;6.93;;;3.50;;
10246;SDS011;5168;47.854;7.944;2023-08-20T10:51:10;13.57;;;3.95;;
10246;SDS011;5168;47.854;7.944;2023-08-20T10:53:48;7.00;;;3.28;;
10246;SDS011;5168;47.854;7.944;2023-08-20T10:59:17;9.23;;;3.63;;
10246;SDS011;5168;47.854;7.944;2023-08-20T11:01:43;7.47;;;3.70;;
10246;SDS011;5168;47.854;7.944;2023-08-20T11:04:10;7.72;;;4.00;;
10246;SDS011;5168;47.854;7.944;2023-08-20T11:06:36;10.70;;;3.60;;
10246;SDS011;5168;47.854;7.944;2023-08-20T11:09:02;8.10;;;3.83;;
10246;SDS011;5168;47.854;7.944;2023-08-20T11:11:33;8.02;;;3.95;;
10246;SDS011;5168;47.854;7.944;2023-08-20T11:14:11;9.88;;;3.30;;
10246;SDS011;5168;47.854;7.944;2023-08-20T11:16:41;6.53;;;3.67;;
10246;SDS011;5168;47.854;7.944;2023-08-20T11:19:10;8.10;;;3.40;;
10246;SDS011;5168;47.854;7.944;2023-08-20T11:21:40;5.15;;;3.33;;
10246;SDS011;5168;47.854;7.944;2023-08-20T11:24:06;5.20;;;3.70;;
10246;SDS011;5168;47.854;7.944;2023-08-20T11:26:36;8.23;;;3.40;;
10246;SDS011;5168;47.854;7.944;2023-08-20T11:29:07;5.00;;;2.92;;
10246;SDS011;5168;47.854;7.944;2023-08-20T11:31:37;9.63;;;3.67;;
10246;SDS011;5168;47.854;7.944;2023-08-20T11:34:04;9.93;;;3.95;;
10246;SDS011;5168;47.854;7.944;2023-08-20T11:36:31;11.48;;;3.70;;
10246;SDS011;5168;47.854;7.944;2023-08-20T11:38:57;7.28;;;3.50;;
10246;SDS011;5168;47.854;7.944;2023-08-20T11:41:23;6.05;;;3.40;;
10246;SDS011;5168;47.854;7.944;2023-08-20T11:43:50;6.38;;;3.92;;
10246;SDS011;5168;47.854;7.944;2023-08-20T11:46:18;8.70;;;3.70;;
10246;SDS011;5168;47.854;7.944;2023-08-20T11:51:36;6.50;;;3.53;;
10246;SDS011;5168;47.854;7.944;2023-08-20T11:54:02;6.47;;;3.50;;
10246;SDS011;5168;47.854;7.944;2023-08-20T11:56:30;7.03;;;3.75;;
10246;SDS011;5168;47.854;7.944;2023-08-20T11:59:01;7.05;;;3.80;;
10246;SDS011;5168;47.854;7.944;2023-08-20T12:01:33;9.82;;;4.40;;
10246;SDS011;5168;47.854;7.944;2023-08-20T12:04:06;5.50;;;3.60;;
10246;SDS011;5168;47.854;7.944;2023-08-20T12:06:33;5.07;;;3.60;;
10246;SDS011;5168;47.854;7.944;2023-08-20T12:09:21;8.02;;;3.60;;
10246;SDS011;5168;47.854;7.944;2023-08-20T12:11:54;8.52;;;4.00;;
10246;SDS011;5168;47.854;7.944;2023-08-20T12:14:23;9.85;;;3.80;;
10246;SDS011;5168;47.854;7.944;2023-08-20T12:16:49;6.57;;;3.63;;
10246;SDS011;5168;47.854;7.944;2023-08-20T12:19:16;5.72;;;4.10;;
10246;SDS011;5168;47.854;7.944;2023-08-20T12:21:41;5.60;;;4.13;;
10246;SDS011;5168;47.854;7.944;2023-08-20T12:24:08;6.13;;;3.90;;
10246;SDS011;5168;47.854;7.944;2023-08-20T12:26:34;9.82;;;4.03;;
10246;SDS011;5168;47.854;7.944;2023-08-20T12:29:01;8.25;;;3.83;;
10246;SDS011;5168;47.854;7.944;2023-08-20T12:31:27;6.28;;;3.58;;
10246;SDS011;5168;47.854;7.944;2023-08-20T12:33:52;9.00;;;3.80;;
10246;SDS011;5168;47.854;7.944;2023-08-20T12:36:18;5.82;;;3.92;;
10246;SDS011;5168;47.854;7.944;2023-08-20T12:38:44;6.32;;;4.03;;
10246;SDS011;5168;47.854;7.944;2023-08-20T12:41:09;5.30;;;3.80;;
10246;SDS011;5168;47.854;7.944;2023-08-20T12:43:35;9.15;;;4.25;;
10246;SDS011;5168;47.854;7.944;2023-08-20T12:46:01;6.22;;;3.70;;
10246;SDS011;5168;47.854;7.944;2023-08-20T12:48:26;5.10;;;3.63;;
10246;SDS011;5168;47.854;7.944;2023-08-20T12:50:52;5.60;;;3.92;;
10246;SDS011;5168;47.854;7.944;2023-08-20T12:53:17;5.40;;;4.30;;
10246;SDS011;5168;47.854;7.944;2023-08-20T12:55:43;5.75;;;3.83;;
10246;SDS011;5168;47.854;7.944;2023-08-20T12:58:08;7.03;;;3.90;;
10246;SDS011;5168;47.854;7.944;2023-08-20T13:00:34;5.00;;;3.38;;
10246;SDS011;5168;47.854;7.944;2023-08-20T13:03:00;5.45;;;3.42;;
10246;SDS011;5168;47.854;7.944;2023-08-20T13:05:26;8.25;;;4.00;;
10246;SDS011;5168;47.854;7.944;2023-08-20T13:07:52;9.00;;;4.38;;
10246;SDS011;5168;47.854;7.944;2023-08-20T13:10:18;6.07;;;3.10;;
10246;SDS011;5168;47.854;7.944;2023-08-20T13:12:47;8.57;;;3.92;;
10246;SDS011;5168;47.854;7.944;2023-08-20T13:15:15;6.55;;;3.80;;
10246;SDS011;5168;47.854;7.944;2023-08-20T13:17:42;6.28;;;4.13;;
10246;SDS011;5168;47.854;7.944;2023-08-20T13:20:07;7.05;;;4.63;;
10246;SDS011;5168;47.854;7.944;2023-08-20T13:22:33;8.15;;;4.63;;
10246;SDS011;5168;47.854;7.944;2023-08-20T13:24:59;7.10;;;4.90;;
10246;SDS011;5168;47.854;7.944;2023-08-20T13:27:24;5.20;;;4.68;;
10246;SDS011;5168;47.854;7.944;2023-08-20T13:29:50;6.93;;;4.30;;
10246;SDS011;5168;47.854;7.944;2023-08-20T13:32:16;5.90;;;4.82;;
10246;SDS011;5168;47.854;7.944;2023-08-20T13:34:41;7.88;;;5.00;;
10246;SDS011;5168;47.854;7.944;2023-08-20T13:37:07;9.77;;;4.97;;
10246;SDS011;5168;47.854;7.944;2023-08-20T13:39:33;6.57;;;4.85;;
10246;SDS011;5168;47.854;7.944;2023-08-20T13:41:58;5.32;;;4.50;;
10246;SDS011;5168;47.854;7.944;2023-08-20T13:44:24;6.68;;;4.63;;
10246;SDS011;5168;47.854;7.944;2023-08-20T13:46:49;7.63;;;4.47;;
10246;SDS011;5168;47.854;7.944;2023-08-20T13:49:15;5.47;;;4.97;;
10246;SDS011;5168;47.854;7.944;2023-08-20T13:51:40;7.03;;;4.57;;
10246;SDS011;5168;47.854;7.944;2023-08-20T13:54:06;11.18;;;4.57;;
10246;SDS011;5168;47.854;7.944;2023-08-20T13:56:32;6.75;;;4.78;;
10246;SDS011;5168;47.854;7.944;2023-08-20T13:58:57;7.18;;;4.88;;
10246;SDS011;5168;47.854;7.944;2023-08-20T14:01:23;6.93;;;5.15;;
10246;SDS011;5168;47.854;7.944;2023-08-20T14:03:48;6.07;;;4.60;;
10246;SDS011;5168;47.854;7.944;2023-08-20T14:06:15;5.93;;;4.55;;
10246;SDS011;5168;47.854;7.944;2023-08-20T14:08:41;9.05;;;5.10;;
10246;SDS011;5168;47.854;7.944;2023-08-20T14:11:07;7.38;;;4.90;;
10246;SDS011;5168;47.854;7.944;2023-08-20T14:13:32;5.35;;;4.57;;
10246;SDS011;5168;47.854;7.944;2023-08-20T14:15:58;8.23;;;5.13;;
10246;SDS011;5168;47.854;7.944;2023-08-20T14:18:25;5.13;;;4.50;;
10246;SDS011;5168;47.854;7.944;2023-08-20T14:20:51;6.63;;;4.15;;
10246;SDS011;5168;47.854;7.944;2023-08-20T14:23:16;7.70;;;5.35;;
10246;SDS011;5168;47.854;7.944;2023-08-20T14:25:42;6.50;;;5.22;;
10246;SDS011;5168;47.854;7.944;2023-08-20T14:28:08;10.40;;;5.50;;
10246;SDS011;5168;47.854;7.944;2023-08-20T14:30:39;5.68;;;4.85;;
10246;SDS011;5168;47.854;7.944;2023-08-20T14:33:05;5.70;;;4.53;;
10246;SDS011;5168;47.854;7.944;2023-08-20T14:35:32;7.07;;;4.28;;
10246;SDS011;5168;47.854;7.944;2023-08-20T14:37:58;5.45;;;4.95;;
10246;SDS011;5168;47.854;7.944;2023-08-20T14:40:23;6.43;;;4.80;;
10246;SDS011;5168;47.854;7.944;2023-08-20T14:42:49;6.90;;;4.90;;
10246;SDS011;5168;47.854;7.944;2023-08-20T14:45:15;5.78;;;4.95;;
10246;SDS011;5168;47.854;7.944;2023-08-20T14:47:40;8.40;;;4.93;;
10246;SDS011;5168;47.854;7.944;2023-08-20T14:50:06;8.65;;;4.93;;
10246;SDS011;5168;47.854;7.944;2023-08-20T14:52:32;7.40;;;5.00;;
10246;SDS011;5168;47.854;7.944;2023-08-20T14:54:59;6.45;;;5.13;;
10246;SDS011;5168;47.854;7.944;2023-08-20T14:57:24;7.53;;;4.75;;
10246;SDS011;5168;47.854;7.944;2023-08-20T14:59:50;7.28;;;5.25;;
10246;SDS011;5168;47.854;7.944;2023-08-20T15:02:16;10.15;;;5.32;;
10246;SDS011;5168;47.854;7.944;2023-08-20T15:04:42;7.75;;;5.15;;
10246;SDS011;5168;47.854;7.944;2023-08-20T15:07:08;7.75;;;5.57;;
10246;SDS011;5168;47.854;7.944;2023-08-20T15:09:33;5.63;;;5.03;;
10246;SDS011;5168;47.854;7.944;2023-08-20T15:12:00;5.70;;;4.60;;
10246;SDS011;5168;47.854;7.944;2023-08-20T15:14:25;8.80;;;5.05;;